sensor_id;sensor_type;location;lat;lon;timestamp;pressure;altitude;pressure_sealevel;temperature;humidity
12475;BME280;6302;42.624;23.334;2023-02-03T00:01:54;93449.63;;;1.50;100.00
12475;BME280;6302;42.624;23.334;2023-02-03T00:04:21;93447.44;;;1.52;100.00
12475;BME280;6302;42.624;23.334;2023-02-03T00:06:48;93436.69;;;1.42;100.00
12475;BME280;6302;42.624;23.334;2023-02-03T00:09:15;93441.81;;;1.38;100.00
12475;BME280;6302;42.624;23.334;2023-02-03T00:11:42;93439.53;;;1.37;100.00
12475;BME280;6302;42.624;23.334;2023-02-03T00:14:09;93444.34;;;1.22;100.00
12475;BME280;6302;42.624;23.334;2023-02-03T00:16:36;93440.97;;;1.22;100.00
12475;BME280;6302;42.624;23.334;2023-02-03T00:19:04;93441.53;;;1.15;100.00
12475;BME280;6302;42.624;23.334;2023-02-03T00:21:31;93436.75;;;1.17;100.00
12475;BME280;6302;42.624;23.334;2023-02-03T00:23:57;93440.53;;;1.20;100.00
12475;BME280;6302;42.624;23.334;2023-02-03T00:26:24;93437.59;;;1.21;100.00
12475;BME280;6302;42.624;23.334;2023-02-03T00:28:53;93432.28;;;1.18;100.00
12475;BME280;6302;42.624;23.334;2023-02-03T00:31:21;93436.75;;;1.17;100.00
12475;BME280;6302;42.624;23.334;2023-02-03T00:33:53;93440.31;;;1.25;100.00
12475;BME280;6302;42.624;23.334;2023-02-03T00:36:21;93439.66;;;1.28;100.00
12475;BME280;6302;42.624;23.334;2023-02-03T00:38:48;93445.75;;;1.20;100.00
12475;BME280;6302;42.624;23.334;2023-02-03T00:41:15;93450.34;;;1.23;100.00
12475;BME280;6302;42.624;23.334;2023-02-03T00:43:42;93467.69;;;1.31;100.00
12475;BME280;6302;42.624;23.334;2023-02-03T00:46:09;93462.25;;;1.36;100.00
12475;BME280;6302;42.624;23.334;2023-02-03T00:48:35;93462.47;;;1.43;100.00
12475;BME280;6302;42.624;23.334;2023-02-03T00:51:02;93465.94;;;1.47;100.00
12475;BME280;6302;42.624;23.334;2023-02-03T00:53:31;93452.47;;;1.45;100.00
12475;BME280;6302;42.624;23.334;2023-02-03T00:55:58;93460.72;;;1.47;100.00
12475;BME280;6302;42.624;23.334;2023-02-03T00:58:25;93469.63;;;1.46;100.00
12475;BME280;6302;42.624;23.334;2023-02-03T01:00:53;93468.13;;;1.45;100.00
12475;BME280;6302;42.624;23.334;2023-02-03T01:03:20;93471.72;;;1.41;100.00
12475;BME280;6302;42.624;23.334;2023-02-03T01:05:47;93475.09;;;1.41;100.00
12475;BME280;6302;42.624;23.334;2023-02-03T01:08:13;93474.13;;;1.33;100.00
12475;BME280;6302;42.624;23.334;2023-02-03T01:10:42;93484.69;;;1.25;100.00
12475;BME280;6302;42.624;23.334;2023-02-03T01:13:08;93481.00;;;1.14;100.00
12475;BME280;6302;42.624;23.334;2023-02-03T01:15:35;93487.53;;;1.08;100.00
12475;BME280;6302;42.624;23.334;2023-02-03T01:18:02;93478.38;;;1.14;100.00
12475;BME280;6302;42.624;23.334;2023-02-03T01:20:30;93482.88;;;1.13;100.00
12475;BME280;6302;42.624;23.334;2023-02-03T01:22:57;93479.91;;;1.15;100.00
12475;BME280;6302;42.624;23.334;2023-02-03T01:25:23;93481.31;;;1.24;100.00
12475;BME280;6302;42.624;23.334;2023-02-03T01:27:52;93477.63;;;1.25;100.00
12475;BME280;6302;42.624;23.334;2023-02-03T01:30:18;93484.38;;;1.14;100.00
12475;BME280;6302;42.624;23.334;2023-02-03T01:32:45;93474.69;;;1.15;100.00
12475;BME280;6302;42.624;23.334;2023-02-03T01:35:12;93476.88;;;1.13;100.00
12475;BME280;6302;42.624;23.334;2023-02-03T01:37:39;93470.34;;;1.07;100.00
12475;BME280;6302;42.624;23.334;2023-02-03T01:40:07;93467.66;;;1.03;100.00
12475;BME280;6302;42.624;23.334;2023-02-03T01:42:34;93475.03;;;1.01;100.00
12475;BME280;6302;42.624;23.334;2023-02-03T01:45:02;93473.50;;;1.00;100.00
12475;BME280;6302;42.624;23.334;2023-02-03T01:47:31;93483.09;;;0.96;100.00
12475;BME280;6302;42.624;23.334;2023-02-03T01:50:05;93497.63;;;1.09;100.00
12475;BME280;6302;42.624;23.334;2023-02-03T01:52:34;93503.19;;;1.08;100.00
12475;BME280;6302;42.624;23.334;2023-02-03T01:55:04;93511.78;;;1.08;100.00
12475;BME280;6302;42.624;23.334;2023-02-03T01:57:37;93502.66;;;1.02;100.00
12475;BME280;6302;42.624;23.334;2023-02-03T02:00:10;93498.28;;;1.06;100.00
12475;BME280;6302;42.624;23.334;2023-02-03T02:02:37;93502.31;;;1.04;100.00
12475;BME280;6302;42.624;23.334;2023-02-03T02:05:06;93506.13;;;1.06;100.00
12475;BME280;6302;42.624;23.334;2023-02-03T02:07:36;93511.88;;;1.12;100.00
12475;BME280;6302;42.624;23.334;2023-02-03T02:10:06;93502.44;;;1.07;100.00
12475;BME280;6302;42.624;23.334;2023-02-03T02:12:33;93503.97;;;1.08;100.00
12475;BME280;6302;42.624;23.334;2023-02-03T02:14:59;93510.38;;;1.11;100.00
12475;BME280;6302;42.624;23.334;2023-02-03T02:17:53;93504.28;;;1.07;100.00
12475;BME280;6302;42.624;23.334;2023-02-03T02:20:37;93502.09;;;0.97;100.00
12475;BME280;6302;42.624;23.334;2023-02-03T02:23:35;93494.28;;;0.97;100.00
12475;BME280;6302;42.624;23.334;2023-02-03T02:26:27;93511.47;;;0.98;100.00
12475;BME280;6302;42.624;23.334;2023-02-03T02:29:20;93520.56;;;1.04;100.00
12475;BME280;6302;42.624;23.334;2023-02-03T02:32:05;93534.72;;;1.03;100.00
12475;BME280;6302;42.624;23.334;2023-02-03T02:34:49;93523.41;;;0.99;100.00
12475;BME280;6302;42.624;23.334;2023-02-03T02:37:25;93512.53;;;0.97;100.00
12475;BME280;6302;42.624;23.334;2023-02-03T02:40:00;93509.63;;;0.86;100.00
12475;BME280;6302;42.624;23.334;2023-02-03T02:42:33;93522.09;;;0.93;100.00
12475;BME280;6302;42.624;23.334;2023-02-03T02:45:06;93513.53;;;0.92;100.00
12475;BME280;6302;42.624;23.334;2023-02-03T02:47:36;93513.84;;;0.91;100.00
12475;BME280;6302;42.624;23.334;2023-02-03T02:50:06;93509.41;;;0.91;100.00
12475;BME280;6302;42.624;23.334;2023-02-03T02:52:37;93505.25;;;0.90;100.00
12475;BME280;6302;42.624;23.334;2023-02-03T02:55:12;93513.41;;;0.89;100.00
12475;BME280;6302;42.624;23.334;2023-02-03T02:57:40;93510.03;;;0.88;100.00
12475;BME280;6302;42.624;23.334;2023-02-03T03:00:08;93525.28;;;0.86;100.00
12475;BME280;6302;42.624;23.334;2023-02-03T03:02:37;93529.72;;;0.86;100.00
12475;BME280;6302;42.624;23.334;2023-02-03T03:05:05;93538.84;;;0.92;100.00
12475;BME280;6302;42.624;23.334;2023-02-03T03:07:37;93516.69;;;0.86;100.00
12475;BME280;6302;42.624;23.334;2023-02-03T03:10:09;93532.88;;;0.91;100.00
12475;BME280;6302;42.624;23.334;2023-02-03T03:12:42;93541.66;;;0.87;100.00
12475;BME280;6302;42.624;23.334;2023-02-03T03:15:15;93541.13;;;0.81;100.00
12475;BME280;6302;42.624;23.334;2023-02-03T03:17:48;93537.75;;;0.81;100.00
12475;BME280;6302;42.624;23.334;2023-02-03T03:20:20;93546.34;;;0.81;100.00
12475;BME280;6302;42.624;23.334;2023-02-03T03:22:52;93542.84;;;0.77;100.00
12475;BME280;6302;42.624;23.334;2023-02-03T03:25:23;93544.25;;;0.75;100.00
12475;BME280;6302;42.624;23.334;2023-02-03T03:27:55;93544.38;;;0.78;100.00
12475;BME280;6302;42.624;23.334;2023-02-03T03:30:26;93549.81;;;0.85;100.00
12475;BME280;6302;42.624;23.334;2023-02-03T03:32:56;93549.28;;;0.92;100.00
12475;BME280;6302;42.624;23.334;2023-02-03T03:35:24;93530.72;;;0.93;100.00
12475;BME280;6302;42.624;23.334;2023-02-03T03:37:56;93536.03;;;0.97;100.00
12475;BME280;6302;42.624;23.334;2023-02-03T03:40:27;93555.38;;;0.96;100.00
12475;BME280;6302;42.624;23.334;2023-02-03T03:42:57;93542.66;;;0.94;100.00
12475;BME280;6302;42.624;23.334;2023-02-03T03:45:29;93550.16;;;0.96;100.00
12475;BME280;6302;42.624;23.334;2023-02-03T03:48:04;93543.41;;;0.95;100.00
12475;BME280;6302;42.624;23.334;2023-02-03T03:50:37;93540.59;;;1.00;100.00
12475;BME280;6302;42.624;23.334;2023-02-03T03:53:08;93546.47;;;0.97;100.00
12475;BME280;6302;42.624;23.334;2023-02-03T03:55:37;93553.84;;;0.95;100.00
12475;BME280;6302;42.624;23.334;2023-02-03T03:58:09;93547.56;;;0.96;100.00
12475;BME280;6302;42.624;23.334;2023-02-03T04:00:38;93545.59;;;0.93;100.00
12475;BME280;6302;42.624;23.334;2023-02-03T04:03:12;93549.28;;;0.92;100.00
12475;BME280;6302;42.624;23.334;2023-02-03T04:05:39;93552.22;;;0.90;100.00
12475;BME280;6302;42.624;23.334;2023-02-03T04:08:06;93562.31;;;0.92;100.00
12475;BME280;6302;42.624;23.334;2023-02-03T04:10:35;93563.44;;;0.91;100.00
12475;BME280;6302;42.624;23.334;2023-02-03T04:13:03;93567.09;;;0.90;100.00
12475;BME280;6302;42.624;23.334;2023-02-03T04:15:30;93576.13;;;0.92;100.00
12475;BME280;6302;42.624;23.334;2023-02-03T04:17:57;93566.81;;;0.91;100.00
12475;BME280;6302;42.624;23.334;2023-02-03T04:20:27;93572.97;;;0.87;100.00
12475;BME280;6302;42.624;23.334;2023-02-03T04:22:55;93579.28;;;0.86;100.00
12475;BME280;6302;42.624;23.334;2023-02-03T04:25:22;93583.53;;;0.90;100.00
12475;BME280;6302;42.624;23.334;2023-02-03T04:27:49;93587.56;;;0.88;100.00
12475;BME280;6302;42.624;23.334;2023-02-03T04:30:16;93587.22;;;0.89;100.00
12475;BME280;6302;42.624;23.334;2023-02-03T04:32:43;93615.19;;;0.89;100.00
12475;BME280;6302;42.624;23.334;2023-02-03T04:35:11;93620.81;;;0.91;100.00
12475;BME280;6302;42.624;23.334;2023-02-03T04:37:39;93613.44;;;0.93;100.00
12475;BME280;6302;42.624;23.334;2023-02-03T04:40:07;93626.28;;;0.98;100.00
12475;BME280;6302;42.624;23.334;2023-02-03T04:42:35;93613.63;;;0.88;100.00
12475;BME280;6302;42.624;23.334;2023-02-03T04:45:03;93621.59;;;0.91;100.00
12475;BME280;6302;42.624;23.334;2023-02-03T04:47:30;93622.78;;;0.94;100.00
12475;BME280;6302;42.624;23.334;2023-02-03T04:49:57;93629.72;;;0.90;100.00
12475;BME280;6302;42.624;23.334;2023-02-03T04:52:24;93634.94;;;0.90;100.00
12475;BME280;6302;42.624;23.334;2023-02-03T04:54:52;93636.28;;;0.96;100.00
12475;BME280;6302;42.624;23.334;2023-02-03T04:57:19;93632.78;;;0.92;100.00
12475;BME280;6302;42.624;23.334;2023-02-03T04:59:46;93636.72;;;0.98;100.00
12475;BME280;6302;42.624;23.334;2023-02-03T05:02:13;93638.78;;;1.04;100.00
12475;BME280;6302;42.624;23.334;2023-02-03T05:04:39;93633.66;;;0.96;100.00
12475;BME280;6302;42.624;23.334;2023-02-03T05:07:06;93643.22;;;0.92;100.00
12475;BME280;6302;42.624;23.334;2023-02-03T05:09:33;93652.44;;;0.89;100.00
12475;BME280;6302;42.624;23.334;2023-02-03T05:12:01;93653.41;;;0.85;100.00
12475;BME280;6302;42.624;23.334;2023-02-03T05:14:28;93658.84;;;0.92;100.00
12475;BME280;6302;42.624;23.334;2023-02-03T05:16:55;93657.34;;;0.91;100.00
12475;BME280;6302;42.624;23.334;2023-02-03T05:19:21;93652.22;;;0.94;100.00
12475;BME280;6302;42.624;23.334;2023-02-03T05:21:48;93656.81;;;0.97;100.00
12475;BME280;6302;42.624;23.334;2023-02-03T05:24:15;93664.75;;;0.89;100.00
12475;BME280;6302;42.624;23.334;2023-02-03T05:26:42;93655.03;;;0.89;100.00
12475;BME280;6302;42.624;23.334;2023-02-03T05:29:10;93657.84;;;0.84;100.00
12475;BME280;6302;42.624;23.334;2023-02-03T05:31:37;93675.19;;;0.89;100.00
12475;BME280;6302;42.624;23.334;2023-02-03T05:34:04;93668.22;;;0.93;100.00
12475;BME280;6302;42.624;23.334;2023-02-03T05:36:30;93666.38;;;0.93;100.00
12475;BME280;6302;42.624;23.334;2023-02-03T05:38:57;93667.78;;;0.91;100.00
12475;BME280;6302;42.624;23.334;2023-02-03T05:41:24;93668.09;;;0.89;100.00
12475;BME280;6302;42.624;23.334;2023-02-03T05:44:10;93665.16;;;0.79;100.00
12475;BME280;6302;42.624;23.334;2023-02-03T05:46:37;93670.56;;;0.74;100.00
12475;BME280;6302;42.624;23.334;2023-02-03T05:49:03;93665.66;;;0.72;100.00
12475;BME280;6302;42.624;23.334;2023-02-03T05:51:30;93677.47;;;0.70;100.00
12475;BME280;6302;42.624;23.334;2023-02-03T05:53:58;93676.22;;;0.76;100.00
12475;BME280;6302;42.624;23.334;2023-02-03T05:56:24;93676.50;;;0.74;100.00
12475;BME280;6302;42.624;23.334;2023-02-03T05:58:51;93682.19;;;0.76;100.00
12475;BME280;6302;42.624;23.334;2023-02-03T06:01:19;93689.44;;;0.71;100.00
12475;BME280;6302;42.624;23.334;2023-02-03T06:03:46;93698.81;;;0.72;100.00
12475;BME280;6302;42.624;23.334;2023-02-03T06:06:14;93682.94;;;0.77;100.00
12475;BME280;6302;42.624;23.334;2023-02-03T06:08:41;93680.13;;;0.82;100.00
12475;BME280;6302;42.624;23.334;2023-02-03T06:11:09;93688.16;;;0.77;100.00
12475;BME280;6302;42.624;23.334;2023-02-03T06:13:36;93680.78;;;0.79;100.00
12475;BME280;6302;42.624;23.334;2023-02-03T06:16:03;93683.50;;;0.82;100.00
12475;BME280;6302;42.624;23.334;2023-02-03T06:18:31;93699.59;;;0.84;100.00
12475;BME280;6302;42.624;23.334;2023-02-03T06:20:58;93686.66;;;0.76;100.00
12475;BME280;6302;42.624;23.334;2023-02-03T06:23:25;93687.75;;;0.87;100.00
12475;BME280;6302;42.624;23.334;2023-02-03T06:25:51;93696.06;;;0.89;100.00
12475;BME280;6302;42.624;23.334;2023-02-03T06:28:18;93696.69;;;0.86;100.00
12475;BME280;6302;42.624;23.334;2023-02-03T06:30:48;93697.31;;;0.83;100.00
12475;BME280;6302;42.624;23.334;2023-02-03T06:33:15;93696.16;;;0.92;100.00
12475;BME280;6302;42.624;23.334;2023-02-03T06:35:43;93713.34;;;0.93;100.00
12475;BME280;6302;42.624;23.334;2023-02-03T06:38:10;93709.97;;;0.93;100.00
12475;BME280;6302;42.624;23.334;2023-02-03T06:40:37;93709.00;;;0.97;100.00
12475;BME280;6302;42.624;23.334;2023-02-03T06:43:03;93715.09;;;1.01;100.00
12475;BME280;6302;42.624;23.334;2023-02-03T06:45:30;93721.41;;;1.00;100.00
12475;BME280;6302;42.624;23.334;2023-02-03T06:47:57;93734.69;;;1.07;100.00
12475;BME280;6302;42.624;23.334;2023-02-03T06:50:24;93721.03;;;1.10;100.00
12475;BME280;6302;42.624;23.334;2023-02-03T06:52:52;93726.69;;;1.12;100.00
12475;BME280;6302;42.624;23.334;2023-02-03T06:55:19;93740.28;;;1.18;100.00
12475;BME280;6302;42.624;23.334;2023-02-03T06:57:47;93729.66;;;1.23;100.00
12475;BME280;6302;42.624;23.334;2023-02-03T07:00:15;93706.22;;;1.14;100.00
12475;BME280;6302;42.624;23.334;2023-02-03T07:02:43;93725.28;;;1.15;100.00
12475;BME280;6302;42.624;23.334;2023-02-03T07:05:10;93730.63;;;1.18;100.00
12475;BME280;6302;42.624;23.334;2023-02-03T07:07:37;93724.72;;;1.21;100.00
12475;BME280;6302;42.624;23.334;2023-02-03T07:10:06;93726.13;;;1.19;100.00
12475;BME280;6302;42.624;23.334;2023-02-03T07:12:33;93722.47;;;1.20;100.00
12475;BME280;6302;42.624;23.334;2023-02-03T07:15:01;93715.19;;;1.25;100.00
12475;BME280;6302;42.624;23.334;2023-02-03T07:17:28;93722.91;;;1.34;100.00
12475;BME280;6302;42.624;23.334;2023-02-03T07:19:55;93705.06;;;1.36;100.00
12475;BME280;6302;42.624;23.334;2023-02-03T07:22:21;93705.75;;;1.33;100.00
12475;BME280;6302;42.624;23.334;2023-02-03T07:24:48;93721.00;;;1.43;100.00
12475;BME280;6302;42.624;23.334;2023-02-03T07:27:16;93672.50;;;1.09;100.00
12475;BME280;6302;42.624;23.334;2023-02-03T07:29:43;93731.69;;;1.50;100.00
12475;BME280;6302;42.624;23.334;2023-02-03T07:32:10;93733.31;;;1.55;100.00
12475;BME280;6302;42.624;23.334;2023-02-03T07:34:37;93737.13;;;1.57;100.00
12475;BME280;6302;42.624;23.334;2023-02-03T07:37:03;93741.69;;;1.60;100.00
12475;BME280;6302;42.624;23.334;2023-02-03T07:39:30;93746.03;;;1.56;100.00
12475;BME280;6302;42.624;23.334;2023-02-03T07:41:57;93741.25;;;1.58;100.00
12475;BME280;6302;42.624;23.334;2023-02-03T07:44:25;93749.34;;;1.65;100.00
12475;BME280;6302;42.624;23.334;2023-02-03T07:46:52;93763.59;;;1.68;100.00
12475;BME280;6302;42.624;23.334;2023-02-03T07:49:19;93748.88;;;1.75;100.00
12475;BME280;6302;42.624;23.334;2023-02-03T07:51:46;93754.78;;;1.72;100.00
12475;BME280;6302;42.624;23.334;2023-02-03T07:54:12;93772.63;;;1.70;100.00
12475;BME280;6302;42.624;23.334;2023-02-03T07:56:41;93775.47;;;1.77;100.00
12475;BME280;6302;42.624;23.334;2023-02-03T07:59:08;93771.31;;;1.76;100.00
12475;BME280;6302;42.624;23.334;2023-02-03T08:01:36;93776.34;;;1.81;100.00
12475;BME280;6302;42.624;23.334;2023-02-03T08:04:03;93773.94;;;1.76;100.00
12475;BME280;6302;42.624;23.334;2023-02-03T08:06:30;93790.94;;;1.82;100.00
12475;BME280;6302;42.624;23.334;2023-02-03T08:08:57;93766.09;;;1.76;100.00
12475;BME280;6302;42.624;23.334;2023-02-03T08:11:24;93777.22;;;1.97;100.00
12475;BME280;6302;42.624;23.334;2023-02-03T08:13:50;93769.63;;;1.92;100.00
12475;BME280;6302;42.624;23.334;2023-02-03T08:16:17;93784.41;;;2.01;100.00
12475;BME280;6302;42.624;23.334;2023-02-03T08:18:45;93790.19;;;2.06;100.00
12475;BME280;6302;42.624;23.334;2023-02-03T08:21:12;93796.41;;;2.14;100.00
12475;BME280;6302;42.624;23.334;2023-02-03T08:23:39;93801.22;;;2.12;100.00
12475;BME280;6302;42.624;23.334;2023-02-03T08:26:06;93807.31;;;2.16;100.00
12475;BME280;6302;42.624;23.334;2023-02-03T08:28:32;93807.22;;;2.24;100.00
12475;BME280;6302;42.624;23.334;2023-02-03T08:30:59;93801.31;;;2.27;100.00
12475;BME280;6302;42.624;23.334;2023-02-03T08:33:26;93794.88;;;2.25;100.00
12475;BME280;6302;42.624;23.334;2023-02-03T08:35:54;93797.72;;;2.32;100.00
12475;BME280;6302;42.624;23.334;2023-02-03T08:38:23;93794.91;;;2.37;100.00
12475;BME280;6302;42.624;23.334;2023-02-03T08:40:49;93789.66;;;2.37;100.00
12475;BME280;6302;42.624;23.334;2023-02-03T08:43:16;93795.13;;;2.44;100.00
12475;BME280;6302;42.624;23.334;2023-02-03T08:45:43;93804.22;;;2.62;100.00
12475;BME280;6302;42.624;23.334;2023-02-03T08:48:10;93805.75;;;2.75;100.00
12475;BME280;6302;42.624;23.334;2023-02-03T08:50:40;93808.69;;;2.86;100.00
12475;BME280;6302;42.624;23.334;2023-02-03T08:53:08;93805.19;;;2.82;100.00
12475;BME280;6302;42.624;23.334;2023-02-03T08:55:37;93814.22;;;2.84;100.00
12475;BME280;6302;42.624;23.334;2023-02-03T08:58:04;93823.06;;;2.80;100.00
12475;BME280;6302;42.624;23.334;2023-02-03T09:00:31;93822.31;;;2.79;100.00
12475;BME280;6302;42.624;23.334;2023-02-03T09:02:58;93824.69;;;2.84;100.00
12475;BME280;6302;42.624;23.334;2023-02-03T09:05:24;93817.38;;;2.90;100.00
12475;BME280;6302;42.624;23.334;2023-02-03T09:07:51;93829.41;;;2.79;100.00
12475;BME280;6302;42.624;23.334;2023-02-03T09:10:19;93797.47;;;2.73;100.00
12475;BME280;6302;42.624;23.334;2023-02-03T09:12:46;93795.28;;;2.75;100.00
12475;BME280;6302;42.624;23.334;2023-02-03T09:15:13;93796.06;;;2.76;100.00
12475;BME280;6302;42.624;23.334;2023-02-03T09:17:39;93783.28;;;2.74;100.00
12475;BME280;6302;42.624;23.334;2023-02-03T09:20:07;93775.44;;;2.62;100.00
12475;BME280;6302;42.624;23.334;2023-02-03T09:22:34;93791.81;;;2.71;100.00
12475;BME280;6302;42.624;23.334;2023-02-03T09:25:01;93752.56;;;2.71;100.00
12475;BME280;6302;42.624;23.334;2023-02-03T09:27:29;93791.81;;;2.71;100.00
12475;BME280;6302;42.624;23.334;2023-02-03T09:29:56;93785.25;;;2.65;100.00
12475;BME280;6302;42.624;23.334;2023-02-03T09:32:23;93811.44;;;2.65;100.00
12475;BME280;6302;42.624;23.334;2023-02-03T09:34:50;93794.53;;;2.62;100.00
12475;BME280;6302;42.624;23.334;2023-02-03T09:37:16;93791.69;;;2.68;100.00
12475;BME280;6302;42.624;23.334;2023-02-03T09:39:43;93802.81;;;2.64;100.00
12475;BME280;6302;42.624;23.334;2023-02-03T09:42:26;93794.44;;;2.59;100.00
12475;BME280;6302;42.624;23.334;2023-02-03T09:45:07;93801.72;;;2.78;100.00
12475;BME280;6302;42.624;23.334;2023-02-03T09:47:39;93800.50;;;2.75;100.00
12475;BME280;6302;42.624;23.334;2023-02-03T09:50:11;93790.19;;;2.67;100.00
12475;BME280;6302;42.624;23.334;2023-02-03T09:52:40;93788.31;;;2.67;100.00
12475;BME280;6302;42.624;23.334;2023-02-03T09:55:18;93787.41;;;2.87;100.00
12475;BME280;6302;42.624;23.334;2023-02-03T09:57:49;93770.63;;;2.88;100.00
12475;BME280;6302;42.624;23.334;2023-02-03T10:00:26;93770.69;;;2.92;100.00
12475;BME280;6302;42.624;23.334;2023-02-03T10:03:00;93786.84;;;2.94;100.00
12475;BME280;6302;42.624;23.334;2023-02-03T10:05:45;93790.28;;;3.10;100.00
12475;BME280;6302;42.624;23.334;2023-02-03T10:08:28;93792.47;;;3.08;100.00
12475;BME280;6302;42.624;23.334;2023-02-03T10:11:08;93777.44;;;3.05;100.00
12475;BME280;6302;42.624;23.334;2023-02-03T10:13:48;93786.66;;;3.14;100.00
12475;BME280;6302;42.624;23.334;2023-02-03T10:16:48;93778.22;;;3.21;100.00
12475;BME280;6302;42.624;23.334;2023-02-03T10:19:23;93783.22;;;3.26;100.00
12475;BME280;6302;42.624;23.334;2023-02-03T10:21:53;93776.28;;;3.46;100.00
12475;BME280;6302;42.624;23.334;2023-02-03T10:24:26;93782.22;;;3.43;100.00
12475;BME280;6302;42.624;23.334;2023-02-03T10:26:57;93763.81;;;3.55;100.00
12475;BME280;6302;42.624;23.334;2023-02-03T10:29:29;93762.38;;;3.57;100.00
12475;BME280;6302;42.624;23.334;2023-02-03T10:32:00;93723.94;;;3.34;100.00
12475;BME280;6302;42.624;23.334;2023-02-03T10:34:27;93769.25;;;3.34;100.00
12475;BME280;6302;42.624;23.334;2023-02-03T10:36:55;93764.28;;;3.17;100.00
12475;BME280;6302;42.624;23.334;2023-02-03T10:39:30;93772.97;;;3.05;100.00
12475;BME280;6302;42.624;23.334;2023-02-03T10:41:59;93769.81;;;3.27;100.00
12475;BME280;6302;42.624;23.334;2023-02-03T10:44:34;93771.47;;;3.48;100.00
12475;BME280;6302;42.624;23.334;2023-02-03T10:47:16;93761.63;;;3.72;100.00
12475;BME280;6302;42.624;23.334;2023-02-03T10:49:46;93754.34;;;3.81;100.00
12475;BME280;6302;42.624;23.334;2023-02-03T10:52:25;93748.78;;;3.83;100.00
12475;BME280;6302;42.624;23.334;2023-02-03T10:54:53;93737.19;;;3.68;100.00
12475;BME280;6302;42.624;23.334;2023-02-03T10:57:20;93758.75;;;3.62;100.00
12475;BME280;6302;42.624;23.334;2023-02-03T10:59:47;93759.16;;;3.64;100.00
12475;BME280;6302;42.624;23.334;2023-02-03T11:02:23;93762.53;;;3.64;95.47
12475;BME280;6302;42.624;23.334;2023-02-03T11:05:18;93752.41;;;3.63;80.42
12475;BME280;6302;42.624;23.334;2023-02-03T11:07:45;93769.22;;;3.62;77.01
12475;BME280;6302;42.624;23.334;2023-02-03T11:10:27;93765.72;;;3.42;75.94
12475;BME280;6302;42.624;23.334;2023-02-03T11:13:10;93780.31;;;3.27;75.30
12475;BME280;6302;42.624;23.334;2023-02-03T11:15:37;93763.91;;;3.31;75.01
12475;BME280;6302;42.624;23.334;2023-02-03T11:18:26;93759.06;;;3.45;73.44
12475;BME280;6302;42.624;23.334;2023-02-03T11:20:56;93750.81;;;3.74;71.54
12475;BME280;6302;42.624;23.334;2023-02-03T11:23:23;93718.41;;;3.66;69.00
12475;BME280;6302;42.624;23.334;2023-02-03T11:25:50;93741.00;;;3.86;68.60
12475;BME280;6302;42.624;23.334;2023-02-03T11:28:17;93735.50;;;3.91;67.54
12475;BME280;6302;42.624;23.334;2023-02-03T11:30:46;93744.13;;;4.08;67.27
12475;BME280;6302;42.624;23.334;2023-02-03T11:33:23;93721.53;;;4.03;74.04
12475;BME280;6302;42.624;23.334;2023-02-03T11:35:55;93723.06;;;3.73;73.24
12475;BME280;6302;42.624;23.334;2023-02-03T11:38:30;93700.38;;;3.34;70.80
12475;BME280;6302;42.624;23.334;2023-02-03T11:40:59;93727.44;;;3.53;69.98
12475;BME280;6302;42.624;23.334;2023-02-03T11:43:27;93713.09;;;3.63;69.12
12475;BME280;6302;42.624;23.334;2023-02-03T11:45:59;93714.34;;;3.69;71.86
12475;BME280;6302;42.624;23.334;2023-02-03T11:48:29;93716.31;;;3.72;72.09
12475;BME280;6302;42.624;23.334;2023-02-03T11:51:03;93709.34;;;3.95;69.79
12475;BME280;6302;42.624;23.334;2023-02-03T11:53:43;93711.91;;;4.07;67.65
12475;BME280;6302;42.624;23.334;2023-02-03T11:56:22;93703.78;;;4.12;65.87
12475;BME280;6302;42.624;23.334;2023-02-03T11:59:16;93710.22;;;4.15;68.04
12475;BME280;6302;42.624;23.334;2023-02-03T12:04:59;93708.88;;;3.74;72.66
12475;BME280;6302;42.624;23.334;2023-02-03T12:07:44;93716.31;;;3.72;72.08
12475;BME280;6302;42.624;23.334;2023-02-03T12:10:24;93722.31;;;3.72;71.37
12475;BME280;6302;42.624;23.334;2023-02-03T12:13:00;93721.59;;;3.44;67.71
12475;BME280;6302;42.624;23.334;2023-02-03T12:15:46;93705.00;;;3.24;67.57
12475;BME280;6302;42.624;23.334;2023-02-03T12:18:30;93708.88;;;3.74;66.28
12475;BME280;6302;42.624;23.334;2023-02-03T12:21:13;93708.53;;;3.91;64.83
12475;BME280;6302;42.624;23.334;2023-02-03T12:23:52;93701.59;;;3.83;63.66
12475;BME280;6302;42.624;23.334;2023-02-03T12:26:23;93692.53;;;3.80;63.53
12475;BME280;6302;42.624;23.334;2023-02-03T12:28:57;93706.16;;;3.86;63.77
12475;BME280;6302;42.624;23.334;2023-02-03T12:31:32;93706.00;;;3.79;63.84
12475;BME280;6302;42.624;23.334;2023-02-03T12:34:08;93707.16;;;3.66;64.62
12475;BME280;6302;42.624;23.334;2023-02-03T12:36:39;93702.00;;;3.69;64.80
12475;BME280;6302;42.624;23.334;2023-02-03T12:39:13;93690.00;;;3.68;64.40
12475;BME280;6302;42.624;23.334;2023-02-03T12:41:48;93705.25;;;3.63;65.63
12475;BME280;6302;42.624;23.334;2023-02-03T12:44:19;93693.63;;;3.64;65.76
12475;BME280;6302;42.624;23.334;2023-02-03T12:46:51;93690.59;;;3.62;67.37
12475;BME280;6302;42.624;23.334;2023-02-03T12:49:29;93679.94;;;3.55;65.70
12475;BME280;6302;42.624;23.334;2023-02-03T12:52:01;93675.72;;;3.66;66.97
12475;BME280;6302;42.624;23.334;2023-02-03T12:54:36;93678.94;;;3.75;66.82
12475;BME280;6302;42.624;23.334;2023-02-03T12:57:16;93676.53;;;3.39;68.77
12475;BME280;6302;42.624;23.334;2023-02-03T12:59:55;93668.38;;;3.40;69.37
12475;BME280;6302;42.624;23.334;2023-02-03T13:02:27;93670.88;;;3.37;69.12
12475;BME280;6302;42.624;23.334;2023-02-03T13:04:59;93669.06;;;3.09;69.37
12475;BME280;6302;42.624;23.334;2023-02-03T13:07:36;93636.25;;;2.84;70.35
12475;BME280;6302;42.624;23.334;2023-02-03T13:10:15;93667.72;;;3.00;71.29
12475;BME280;6302;42.624;23.334;2023-02-03T13:12:46;93680.69;;;2.96;73.01
12475;BME280;6302;42.624;23.334;2023-02-03T13:15:22;93679.38;;;3.02;71.65
12475;BME280;6302;42.624;23.334;2023-02-03T13:17:55;93661.28;;;2.97;71.82
12475;BME280;6302;42.624;23.334;2023-02-03T13:20:24;93683.47;;;2.88;72.50
12475;BME280;6302;42.624;23.334;2023-02-03T13:22:53;93681.63;;;2.88;72.79